sensor_id;sensor_type;location;lat;lon;timestamp;P1;durP1;ratioP1;P2;durP2;ratioP2
14125;SDS011;7141;49.484;11.242;2023-02-23T00:00:27;6.93;;;4.50;;
14125;SDS011;7141;49.484;11.242;2023-02-23T00:02:57;9.17;;;4.37;;
14125;SDS011;7141;49.484;11.242;2023-02-23T00:05:25;6.67;;;4.80;;
14125;SDS011;7141;49.484;11.242;2023-02-23T00:07:52;6.23;;;4.53;;
14125;SDS011;7141;49.484;11.242;2023-02-23T00:10:19;6.13;;;4.53;;
14125;SDS011;7141;49.484;11.242;2023-02-23T00:12:45;10.53;;;4.90;;
14125;SDS011;7141;49.484;11.242;2023-02-23T00:15:13;8.27;;;4.73;;
14125;SDS011;7141;49.484;11.242;2023-02-23T00:17:40;10.13;;;4.80;;
14125;SDS011;7141;49.484;11.242;2023-02-23T00:20:07;7.33;;;4.70;;
14125;SDS011;7141;49.484;11.242;2023-02-23T00:22:37;7.47;;;4.67;;
14125;SDS011;7141;49.484;11.242;2023-02-23T00:25:04;6.23;;;4.57;;
14125;SDS011;7141;49.484;11.242;2023-02-23T00:27:33;6.80;;;4.33;;
14125;SDS011;7141;49.484;11.242;2023-02-23T00:29:59;7.07;;;4.30;;
14125;SDS011;7141;49.484;11.242;2023-02-23T00:32:25;6.03;;;4.27;;
14125;SDS011;7141;49.484;11.242;2023-02-23T00:34:52;6.60;;;4.10;;
14125;SDS011;7141;49.484;11.242;2023-02-23T00:37:18;6.53;;;4.23;;
14125;SDS011;7141;49.484;11.242;2023-02-23T00:39:46;5.37;;;4.20;;
14125;SDS011;7141;49.484;11.242;2023-02-23T00:42:12;5.57;;;4.47;;
14125;SDS011;7141;49.484;11.242;2023-02-23T00:44:39;7.27;;;4.63;;
14125;SDS011;7141;49.484;11.242;2023-02-23T00:47:06;8.53;;;4.47;;
14125;SDS011;7141;49.484;11.242;2023-02-23T00:49:32;6.93;;;4.60;;
14125;SDS011;7141;49.484;11.242;2023-02-23T00:51:58;6.53;;;4.00;;
14125;SDS011;7141;49.484;11.242;2023-02-23T00:54:24;5.83;;;4.30;;
14125;SDS011;7141;49.484;11.242;2023-02-23T00:56:50;7.00;;;4.63;;
14125;SDS011;7141;49.484;11.242;2023-02-23T00:59:16;6.23;;;4.23;;
14125;SDS011;7141;49.484;11.242;2023-02-23T01:01:43;5.80;;;4.17;;
14125;SDS011;7141;49.484;11.242;2023-02-23T01:04:10;7.30;;;5.07;;
14125;SDS011;7141;49.484;11.242;2023-02-23T01:06:36;6.80;;;4.27;;
14125;SDS011;7141;49.484;11.242;2023-02-23T01:09:13;5.13;;;4.20;;
14125;SDS011;7141;49.484;11.242;2023-02-23T01:11:40;4.70;;;3.93;;
14125;SDS011;7141;49.484;11.242;2023-02-23T01:14:06;6.63;;;4.47;;
14125;SDS011;7141;49.484;11.242;2023-02-23T01:16:33;9.53;;;4.27;;
14125;SDS011;7141;49.484;11.242;2023-02-23T01:19:00;6.47;;;4.20;;
14125;SDS011;7141;49.484;11.242;2023-02-23T01:21:31;5.03;;;3.70;;
14125;SDS011;7141;49.484;11.242;2023-02-23T01:23:58;7.37;;;4.37;;
14125;SDS011;7141;49.484;11.242;2023-02-23T01:26:25;11.53;;;3.97;;
14125;SDS011;7141;49.484;11.242;2023-02-23T01:28:52;6.63;;;4.47;;
14125;SDS011;7141;49.484;11.242;2023-02-23T01:31:19;6.17;;;4.43;;
14125;SDS011;7141;49.484;11.242;2023-02-23T01:33:45;7.77;;;4.57;;
14125;SDS011;7141;49.484;11.242;2023-02-23T01:36:11;5.73;;;4.47;;
14125;SDS011;7141;49.484;11.242;2023-02-23T01:38:38;6.77;;;4.63;;
14125;SDS011;7141;49.484;11.242;2023-02-23T01:41:04;6.73;;;4.13;;
14125;SDS011;7141;49.484;11.242;2023-02-23T01:43:31;6.33;;;4.93;;
14125;SDS011;7141;49.484;11.242;2023-02-23T01:45:57;7.30;;;4.80;;
14125;SDS011;7141;49.484;11.242;2023-02-23T01:48:27;10.13;;;5.50;;
14125;SDS011;7141;49.484;11.242;2023-02-23T01:53:21;9.80;;;6.00;;
14125;SDS011;7141;49.484;11.242;2023-02-23T01:55:49;10.07;;;5.93;;
14125;SDS011;7141;49.484;11.242;2023-02-23T01:58:19;10.47;;;6.20;;
14125;SDS011;7141;49.484;11.242;2023-02-23T02:00:46;10.27;;;6.37;;
14125;SDS011;7141;49.484;11.242;2023-02-23T02:03:16;8.87;;;5.90;;
14125;SDS011;7141;49.484;11.242;2023-02-23T02:05:44;8.57;;;5.80;;
14125;SDS011;7141;49.484;11.242;2023-02-23T02:08:11;11.27;;;6.00;;
14125;SDS011;7141;49.484;11.242;2023-02-23T02:10:37;7.97;;;4.80;;
14125;SDS011;7141;49.484;11.242;2023-02-23T02:13:03;6.93;;;5.40;;
14125;SDS011;7141;49.484;11.242;2023-02-23T02:15:31;8.67;;;5.17;;
14125;SDS011;7141;49.484;11.242;2023-02-23T02:18:09;7.57;;;5.07;;
14125;SDS011;7141;49.484;11.242;2023-02-23T02:31:08;7.57;;;5.10;;
14125;SDS011;7141;49.484;11.242;2023-02-23T02:47:18;8.80;;;6.27;;
14125;SDS011;7141;49.484;11.242;2023-02-23T02:54:41;10.20;;;6.57;;
14125;SDS011;7141;49.484;11.242;2023-02-23T02:57:08;13.17;;;7.53;;
14125;SDS011;7141;49.484;11.242;2023-02-23T02:59:42;11.17;;;7.07;;
14125;SDS011;7141;49.484;11.242;2023-02-23T03:02:27;10.13;;;6.00;;
14125;SDS011;7141;49.484;11.242;2023-02-23T03:05:16;9.63;;;6.47;;
14125;SDS011;7141;49.484;11.242;2023-02-23T03:10:46;12.97;;;6.67;;
14125;SDS011;7141;49.484;11.242;2023-02-23T03:16:21;8.73;;;6.47;;
14125;SDS011;7141;49.484;11.242;2023-02-23T03:22:06;10.00;;;7.07;;
14125;SDS011;7141;49.484;11.242;2023-02-23T03:25:05;8.53;;;5.97;;
14125;SDS011;7141;49.484;11.242;2023-02-23T03:28:26;7.90;;;5.60;;
14125;SDS011;7141;49.484;11.242;2023-02-23T03:34:24;11.07;;;5.80;;
14125;SDS011;7141;49.484;11.242;2023-02-23T03:40:03;8.90;;;6.50;;
14125;SDS011;7141;49.484;11.242;2023-02-23T03:42:49;10.67;;;6.80;;
14125;SDS011;7141;49.484;11.242;2023-02-23T03:45:36;8.43;;;6.07;;
14125;SDS011;7141;49.484;11.242;2023-02-23T03:48:22;8.80;;;5.87;;
14125;SDS011;7141;49.484;11.242;2023-02-23T03:51:07;8.93;;;5.83;;
14125;SDS011;7141;49.484;11.242;2023-02-23T03:53:57;9.03;;;6.00;;
14125;SDS011;7141;49.484;11.242;2023-02-23T03:56:45;10.27;;;5.60;;
14125;SDS011;7141;49.484;11.242;2023-02-23T03:59:33;7.03;;;5.57;;
14125;SDS011;7141;49.484;11.242;2023-02-23T04:02:20;7.37;;;5.40;;
14125;SDS011;7141;49.484;11.242;2023-02-23T04:05:08;7.60;;;5.33;;
14125;SDS011;7141;49.484;11.242;2023-02-23T04:07:54;9.57;;;5.40;;
14125;SDS011;7141;49.484;11.242;2023-02-23T04:10:43;8.43;;;5.97;;
14125;SDS011;7141;49.484;11.242;2023-02-23T04:13:29;9.80;;;5.80;;
14125;SDS011;7141;49.484;11.242;2023-02-23T04:16:04;9.70;;;5.73;;
14125;SDS011;7141;49.484;11.242;2023-02-23T04:18:32;8.77;;;5.90;;
14125;SDS011;7141;49.484;11.242;2023-02-23T04:20:59;7.67;;;5.63;;
14125;SDS011;7141;49.484;11.242;2023-02-23T04:23:25;8.23;;;5.60;;
14125;SDS011;7141;49.484;11.242;2023-02-23T04:25:51;8.50;;;5.37;;
14125;SDS011;7141;49.484;11.242;2023-02-23T04:28:18;6.70;;;5.43;;
14125;SDS011;7141;49.484;11.242;2023-02-23T04:30:44;11.07;;;7.03;;
14125;SDS011;7141;49.484;11.242;2023-02-23T04:33:10;13.83;;;7.77;;
14125;SDS011;7141;49.484;11.242;2023-02-23T04:35:36;14.73;;;9.33;;
14125;SDS011;7141;49.484;11.242;2023-02-23T04:38:02;16.57;;;9.47;;
14125;SDS011;7141;49.484;11.242;2023-02-23T04:40:28;10.50;;;6.00;;
14125;SDS011;7141;49.484;11.242;2023-02-23T04:42:54;9.73;;;5.83;;
14125;SDS011;7141;49.484;11.242;2023-02-23T04:45:21;10.53;;;5.83;;
14125;SDS011;7141;49.484;11.242;2023-02-23T04:47:47;9.47;;;6.33;;
14125;SDS011;7141;49.484;11.242;2023-02-23T04:50:13;8.17;;;6.07;;
14125;SDS011;7141;49.484;11.242;2023-02-23T04:52:39;9.93;;;6.07;;
14125;SDS011;7141;49.484;11.242;2023-02-23T04:55:06;8.40;;;5.90;;
14125;SDS011;7141;49.484;11.242;2023-02-23T04:57:33;7.93;;;5.60;;
14125;SDS011;7141;49.484;11.242;2023-02-23T04:59:59;9.20;;;5.73;;
14125;SDS011;7141;49.484;11.242;2023-02-23T05:02:26;8.43;;;4.93;;
14125;SDS011;7141;49.484;11.242;2023-02-23T05:04:52;8.60;;;4.97;;
14125;SDS011;7141;49.484;11.242;2023-02-23T05:07:18;12.63;;;6.30;;
14125;SDS011;7141;49.484;11.242;2023-02-23T05:09:44;8.63;;;5.50;;
14125;SDS011;7141;49.484;11.242;2023-02-23T05:12:09;11.50;;;6.50;;
14125;SDS011;7141;49.484;11.242;2023-02-23T05:14:35;13.17;;;7.67;;
14125;SDS011;7141;49.484;11.242;2023-02-23T05:17:02;9.30;;;6.17;;
14125;SDS011;7141;49.484;11.242;2023-02-23T05:19:28;10.73;;;6.93;;
14125;SDS011;7141;49.484;11.242;2023-02-23T05:21:54;8.43;;;6.50;;
14125;SDS011;7141;49.484;11.242;2023-02-23T05:24:20;12.60;;;7.83;;
14125;SDS011;7141;49.484;11.242;2023-02-23T05:26:46;12.03;;;8.03;;
14125;SDS011;7141;49.484;11.242;2023-02-23T05:29:13;14.10;;;8.77;;
14125;SDS011;7141;49.484;11.242;2023-02-23T05:31:40;21.50;;;11.20;;
14125;SDS011;7141;49.484;11.242;2023-02-23T05:34:06;18.00;;;11.33;;
14125;SDS011;7141;49.484;11.242;2023-02-23T05:36:32;24.47;;;11.73;;
14125;SDS011;7141;49.484;11.242;2023-02-23T05:38:58;20.50;;;12.63;;
14125;SDS011;7141;49.484;11.242;2023-02-23T05:41:24;20.60;;;13.27;;
14125;SDS011;7141;49.484;11.242;2023-02-23T05:43:50;29.60;;;14.10;;
14125;SDS011;7141;49.484;11.242;2023-02-23T05:46:21;13.13;;;8.57;;
14125;SDS011;7141;49.484;11.242;2023-02-23T05:48:49;12.47;;;7.97;;
14125;SDS011;7141;49.484;11.242;2023-02-23T05:51:15;17.00;;;8.00;;
14125;SDS011;7141;49.484;11.242;2023-02-23T05:53:41;11.57;;;7.47;;
14125;SDS011;7141;49.484;11.242;2023-02-23T05:56:09;13.27;;;7.50;;
14125;SDS011;7141;49.484;11.242;2023-02-23T05:58:36;12.33;;;7.40;;
14125;SDS011;7141;49.484;11.242;2023-02-23T06:01:02;12.57;;;7.63;;
14125;SDS011;7141;49.484;11.242;2023-02-23T06:03:28;11.47;;;7.57;;
14125;SDS011;7141;49.484;11.242;2023-02-23T06:05:55;9.43;;;7.20;;
14125;SDS011;7141;49.484;11.242;2023-02-23T06:08:23;9.03;;;6.33;;
14125;SDS011;7141;49.484;11.242;2023-02-23T06:10:49;9.80;;;6.57;;
14125;SDS011;7141;49.484;11.242;2023-02-23T06:13:15;11.00;;;7.13;;
14125;SDS011;7141;49.484;11.242;2023-02-23T06:15:42;9.37;;;6.27;;
14125;SDS011;7141;49.484;11.242;2023-02-23T06:18:08;10.63;;;7.00;;
14125;SDS011;7141;49.484;11.242;2023-02-23T06:20:34;14.20;;;7.77;;
14125;SDS011;7141;49.484;11.242;2023-02-23T06:23:00;11.40;;;7.23;;
14125;SDS011;7141;49.484;11.242;2023-02-23T06:25:26;14.10;;;8.20;;
14125;SDS011;7141;49.484;11.242;2023-02-23T06:27:52;12.60;;;8.23;;
14125;SDS011;7141;49.484;11.242;2023-02-23T06:30:18;13.50;;;8.40;;
14125;SDS011;7141;49.484;11.242;2023-02-23T06:32:44;15.27;;;8.53;;
14125;SDS011;7141;49.484;11.242;2023-02-23T06:35:10;13.33;;;8.70;;
14125;SDS011;7141;49.484;11.242;2023-02-23T06:37:36;13.70;;;9.00;;
14125;SDS011;7141;49.484;11.242;2023-02-23T06:40:03;13.50;;;10.20;;
14125;SDS011;7141;49.484;11.242;2023-02-23T06:42:29;12.73;;;8.60;;
14125;SDS011;7141;49.484;11.242;2023-02-23T06:44:55;12.03;;;8.10;;
14125;SDS011;7141;49.484;11.242;2023-02-23T06:47:21;13.77;;;8.53;;
14125;SDS011;7141;49.484;11.242;2023-02-23T06:49:47;11.60;;;7.97;;
14125;SDS011;7141;49.484;11.242;2023-02-23T06:52:13;14.03;;;8.43;;
14125;SDS011;7141;49.484;11.242;2023-02-23T06:54:40;13.47;;;9.20;;
14125;SDS011;7141;49.484;11.242;2023-02-23T06:57:06;13.73;;;8.63;;
14125;SDS011;7141;49.484;11.242;2023-02-23T06:59:32;13.27;;;8.37;;
14125;SDS011;7141;49.484;11.242;2023-02-23T07:01:58;12.07;;;8.43;;
14125;SDS011;7141;49.484;11.242;2023-02-23T07:04:25;10.27;;;7.70;;
14125;SDS011;7141;49.484;11.242;2023-02-23T07:06:51;13.67;;;8.43;;
14125;SDS011;7141;49.484;11.242;2023-02-23T07:09:18;13.80;;;8.77;;
14125;SDS011;7141;49.484;11.242;2023-02-23T07:11:44;12.87;;;8.80;;
14125;SDS011;7141;49.484;11.242;2023-02-23T07:14:10;15.03;;;8.97;;
14125;SDS011;7141;49.484;11.242;2023-02-23T07:16:36;15.50;;;8.23;;
14125;SDS011;7141;49.484;11.242;2023-02-23T07:19:03;14.50;;;8.87;;
14125;SDS011;7141;49.484;11.242;2023-02-23T07:21:29;15.80;;;8.50;;
14125;SDS011;7141;49.484;11.242;2023-02-23T07:23:56;14.50;;;8.50;;
14125;SDS011;7141;49.484;11.242;2023-02-23T07:26:22;13.17;;;8.87;;
14125;SDS011;7141;49.484;11.242;2023-02-23T07:28:49;12.63;;;8.07;;
14125;SDS011;7141;49.484;11.242;2023-02-23T07:31:15;11.23;;;7.43;;
14125;SDS011;7141;49.484;11.242;2023-02-23T07:33:41;17.37;;;8.67;;
14125;SDS011;7141;49.484;11.242;2023-02-23T07:36:07;14.50;;;9.07;;
14125;SDS011;7141;49.484;11.242;2023-02-23T07:38:33;15.23;;;10.30;;
14125;SDS011;7141;49.484;11.242;2023-02-23T07:41:00;23.23;;;13.30;;
14125;SDS011;7141;49.484;11.242;2023-02-23T07:43:26;17.13;;;10.33;;
14125;SDS011;7141;49.484;11.242;2023-02-23T07:45:52;16.57;;;9.07;;
14125;SDS011;7141;49.484;11.242;2023-02-23T07:48:18;10.80;;;7.53;;
14125;SDS011;7141;49.484;11.242;2023-02-23T07:50:45;13.70;;;8.40;;
14125;SDS011;7141;49.484;11.242;2023-02-23T07:53:11;13.67;;;8.17;;
14125;SDS011;7141;49.484;11.242;2023-02-23T07:55:37;12.47;;;8.37;;
14125;SDS011;7141;49.484;11.242;2023-02-23T07:58:04;12.60;;;8.70;;
14125;SDS011;7141;49.484;11.242;2023-02-23T08:00:30;14.23;;;8.40;;
14125;SDS011;7141;49.484;11.242;2023-02-23T08:02:57;15.50;;;10.30;;
14125;SDS011;7141;49.484;11.242;2023-02-23T08:05:23;14.90;;;10.13;;
14125;SDS011;7141;49.484;11.242;2023-02-23T08:07:50;16.27;;;10.80;;
14125;SDS011;7141;49.484;11.242;2023-02-23T08:10:16;19.20;;;10.77;;
14125;SDS011;7141;49.484;11.242;2023-02-23T08:12:42;16.77;;;10.57;;
14125;SDS011;7141;49.484;11.242;2023-02-23T08:15:08;18.10;;;10.90;;
14125;SDS011;7141;49.484;11.242;2023-02-23T08:17:35;17.13;;;10.30;;
14125;SDS011;7141;49.484;11.242;2023-02-23T08:20:01;15.37;;;10.43;;
14125;SDS011;7141;49.484;11.242;2023-02-23T08:22:27;16.87;;;10.70;;
14125;SDS011;7141;49.484;11.242;2023-02-23T08:24:53;18.80;;;11.27;;
14125;SDS011;7141;49.484;11.242;2023-02-23T08:27:19;15.40;;;10.03;;
14125;SDS011;7141;49.484;11.242;2023-02-23T08:29:45;17.47;;;10.97;;
14125;SDS011;7141;49.484;11.242;2023-02-23T08:32:12;20.27;;;12.17;;
14125;SDS011;7141;49.484;11.242;2023-02-23T08:34:41;16.80;;;12.53;;
14125;SDS011;7141;49.484;11.242;2023-02-23T08:37:08;23.67;;;14.17;;
14125;SDS011;7141;49.484;11.242;2023-02-23T08:39:34;19.93;;;14.13;;
14125;SDS011;7141;49.484;11.242;2023-02-23T08:42:00;27.10;;;15.27;;
14125;SDS011;7141;49.484;11.242;2023-02-23T08:44:26;23.00;;;14.60;;
14125;SDS011;7141;49.484;11.242;2023-02-23T08:46:52;20.63;;;13.80;;
14125;SDS011;7141;49.484;11.242;2023-02-23T08:49:19;26.90;;;15.00;;
14125;SDS011;7141;49.484;11.242;2023-02-23T08:51:45;28.33;;;16.87;;
14125;SDS011;7141;49.484;11.242;2023-02-23T08:54:11;29.30;;;17.47;;
14125;SDS011;7141;49.484;11.242;2023-02-23T08:56:40;28.47;;;17.83;;
14125;SDS011;7141;49.484;11.242;2023-02-23T08:59:06;27.73;;;18.70;;
14125;SDS011;7141;49.484;11.242;2023-02-23T09:01:32;31.97;;;20.30;;
14125;SDS011;7141;49.484;11.242;2023-02-23T09:03:58;31.67;;;20.30;;
14125;SDS011;7141;49.484;11.242;2023-02-23T09:06:25;29.33;;;19.03;;
14125;SDS011;7141;49.484;11.242;2023-02-23T09:08:51;30.77;;;20.77;;
14125;SDS011;7141;49.484;11.242;2023-02-23T09:11:18;34.90;;;21.13;;
14125;SDS011;7141;49.484;11.242;2023-02-23T09:13:44;30.53;;;18.87;;
14125;SDS011;7141;49.484;11.242;2023-02-23T09:16:10;33.17;;;21.10;;
14125;SDS011;7141;49.484;11.242;2023-02-23T09:18:36;32.83;;;20.73;;
14125;SDS011;7141;49.484;11.242;2023-02-23T09:21:03;27.03;;;18.33;;
14125;SDS011;7141;49.484;11.242;2023-02-23T09:23:36;30.80;;;18.53;;
14125;SDS011;7141;49.484;11.242;2023-02-23T09:26:03;26.63;;;17.40;;
14125;SDS011;7141;49.484;11.242;2023-02-23T09:28:29;24.33;;;17.07;;
14125;SDS011;7141;49.484;11.242;2023-02-23T09:30:55;23.77;;;15.63;;
14125;SDS011;7141;49.484;11.242;2023-02-23T09:33:21;28.70;;;16.67;;
14125;SDS011;7141;49.484;11.242;2023-02-23T09:35:47;26.97;;;17.73;;
14125;SDS011;7141;49.484;11.242;2023-02-23T09:38:13;29.07;;;17.27;;
14125;SDS011;7141;49.484;11.242;2023-02-23T09:40:43;26.23;;;16.53;;
14125;SDS011;7141;49.484;11.242;2023-02-23T09:45:43;28.30;;;18.27;;
14125;SDS011;7141;49.484;11.242;2023-02-23T09:48:15;27.43;;;17.33;;
14125;SDS011;7141;49.484;11.242;2023-02-23T09:50:44;27.13;;;17.20;;
14125;SDS011;7141;49.484;11.242;2023-02-23T09:53:29;31.10;;;19.50;;
14125;SDS011;7141;49.484;11.242;2023-02-23T09:55:56;30.33;;;18.93;;
14125;SDS011;7141;49.484;11.242;2023-02-23T09:58:27;31.60;;;19.83;;
14125;SDS011;7141;49.484;11.242;2023-02-23T10:01:18;30.80;;;19.73;;
14125;SDS011;7141;49.484;11.242;2023-02-23T10:03:42;31.67;;;19.70;;
14125;SDS011;7141;49.484;11.242;2023-02-23T10:06:12;30.17;;;20.03;;
14125;SDS011;7141;49.484;11.242;2023-02-23T10:11:32;33.20;;;21.63;;
14125;SDS011;7141;49.484;11.242;2023-02-23T10:16:32;29.47;;;20.97;;
14125;SDS011;7141;49.484;11.242;2023-02-23T10:19:05;29.33;;;20.23;;
14125;SDS011;7141;49.484;11.242;2023-02-23T10:21:35;40.80;;;22.90;;
14125;SDS011;7141;49.484;11.242;2023-02-23T10:24:04;33.30;;;20.83;;
14125;SDS011;7141;49.484;11.242;2023-02-23T10:29:20;38.53;;;21.80;;
14125;SDS011;7141;49.484;11.242;2023-02-23T10:31:47;41.13;;;24.50;;
14125;SDS011;7141;49.484;11.242;2023-02-23T10:34:15;40.10;;;24.47;;
14125;SDS011;7141;49.484;11.242;2023-02-23T10:39:37;39.20;;;23.40;;
14125;SDS011;7141;49.484;11.242;2023-02-23T10:42:06;36.83;;;23.97;;
14125;SDS011;7141;49.484;11.242;2023-02-23T10:44:37;43.30;;;24.40;;
14125;SDS011;7141;49.484;11.242;2023-02-23T10:47:16;36.93;;;23.63;;
14125;SDS011;7141;49.484;11.242;2023-02-23T10:49:44;36.37;;;23.20;;
14125;SDS011;7141;49.484;11.242;2023-02-23T10:52:12;38.77;;;25.17;;
14125;SDS011;7141;49.484;11.242;2023-02-23T10:57:10;41.17;;;24.73;;
14125;SDS011;7141;49.484;11.242;2023-02-23T10:59:41;36.70;;;24.30;;
14125;SDS011;7141;49.484;11.242;2023-02-23T11:02:21;35.20;;;23.20;;
14125;SDS011;7141;49.484;11.242;2023-02-23T11:04:54;37.47;;;23.27;;
14125;SDS011;7141;49.484;11.242;2023-02-23T11:07:22;37.90;;;22.90;;
14125;SDS011;7141;49.484;11.242;2023-02-23T11:09:48;38.20;;;22.63;;
14125;SDS011;7141;49.484;11.242;2023-02-23T11:12:20;34.10;;;22.27;;
14125;SDS011;7141;49.484;11.242;2023-02-23T11:14:50;36.30;;;24.30;;
14125;SDS011;7141;49.484;11.242;2023-02-23T11:17:24;35.13;;;21.33;;
14125;SDS011;7141;49.484;11.242;2023-02-23T11:19:51;30.27;;;20.87;;
14125;SDS011;7141;49.484;11.242;2023-02-23T11:22:22;34.63;;;21.77;;
14125;SDS011;7141;49.484;11.242;2023-02-23T11:24:51;33.30;;;21.70;;
14125;SDS011;7141;49.484;11.242;2023-02-23T11:27:20;35.27;;;22.97;;
14125;SDS011;7141;49.484;11.242;2023-02-23T11:29:47;34.67;;;21.37;;
14125;SDS011;7141;49.484;11.242;2023-02-23T11:32:21;35.57;;;21.43;;
14125;SDS011;7141;49.484;11.242;2023-02-23T11:35:10;32.30;;;20.47;;
14125;SDS011;7141;49.484;11.242;2023-02-23T11:37:34;31.13;;;20.17;;
14125;SDS011;7141;49.484;11.242;2023-02-23T11:40:02;36.47;;;22.13;;
14125;SDS011;7141;49.484;11.242;2023-02-23T11:42:41;34.10;;;21.50;;
14125;SDS011;7141;49.484;11.242;2023-02-23T11:45:15;37.77;;;23.40;;
14125;SDS011;7141;49.484;11.242;2023-02-23T11:47:53;34.03;;;22.20;;
14125;SDS011;7141;49.484;11.242;2023-02-23T11:52:52;32.20;;;21.23;;
14125;SDS011;7141;49.484;11.242;2023-02-23T11:55:20;30.20;;;20.97;;
14125;SDS011;7141;49.484;11.242;2023-02-23T11:57:46;37.77;;;21.43;;
14125;SDS011;7141;49.484;11.242;2023-02-23T12:00:24;35.80;;;23.23;;
14125;SDS011;7141;49.484;11.242;2023-02-23T12:02:52;35.87;;;21.50;;
14125;SDS011;7141;49.484;11.242;2023-02-23T12:05:21;35.07;;;22.33;;
14125;SDS011;7141;49.484;11.242;2023-02-23T12:10:56;31.77;;;18.77;;
14125;SDS011;7141;49.484;11.242;2023-02-23T12:13:07;32.50;;;19.93;;
14125;SDS011;7141;49.484;11.242;2023-02-23T12:20:55;25.27;;;16.87;;
14125;SDS011;7141;49.484;11.242;2023-02-23T12:23:25;27.20;;;16.97;;
14125;SDS011;7141;49.484;11.242;2023-02-23T12:25:56;27.13;;;17.33;;
14125;SDS011;7141;49.484;11.242;2023-02-23T12:28:37;26.17;;;17.03;;
14125;SDS011;7141;49.484;11.242;2023-02-23T12:31:05;26.83;;;17.60;;
14125;SDS011;7141;49.484;11.242;2023-02-23T12:33:43;26.73;;;16.80;;
14125;SDS011;7141;49.484;11.242;2023-02-23T12:38:45;29.13;;;18.97;;
14125;SDS011;7141;49.484;11.242;2023-02-23T12:41:16;33.50;;;19.27;;
14125;SDS011;7141;49.484;11.242;2023-02-23T12:52:00;28.17;;;17.13;;
14125;SDS011;7141;49.484;11.242;2023-02-23T12:54:32;25.37;;;17.27;;
14125;SDS011;7141;49.484;11.242;2023-02-23T12:59:29;25.10;;;17.30;;
14125;SDS011;7141;49.484;11.242;2023-02-23T13:02:02;29.87;;;18.90;;
14125;SDS011;7141;49.484;11.242;2023-02-23T13:04:38;28.77;;;18.93;;
14125;SDS011;7141;49.484;11.242;2023-02-23T13:07:17;30.03;;;19.73;;
14125;SDS011;7141;49.484;11.242;2023-02-23T13:14:52;28.53;;;17.87;;
14125;SDS011;7141;49.484;11.242;2023-02-23T13:17:36;22.97;;;16.17;;
14125;SDS011;7141;49.484;11.242;2023-02-23T13:20:05;27.43;;;17.73;;
14125;SDS011;7141;49.484;11.242;2023-02-23T13:25:01;26.77;;;17.07;;
14125;SDS011;7141;49.484;11.242;2023-02-23T13:27:38;31.13;;;17.90;;
14125;SDS011;7141;49.484;11.242;2023-02-23T13:30:10;25.87;;;16.87;;
14125;SDS011;7141;49.484;11.242;2023-02-23T13:32:36;20.83;;;14.40;;
14125;SDS011;7141;49.484;11.242;2023-02-23T13:37:30;21.47;;;14.47;;
14125;SDS011;7141;49.484;11.242;2023-02-23T13:45:11;21.97;;;13.33;;
14125;SDS011;7141;49.484;11.242;2023-02-23T13:47:45;21.80;;;13.87;;
14125;SDS011;7141;49.484;11.242;2023-02-23T13:50:25;22.23;;;13.87;;
14125;SDS011;7141;49.484;11.242;2023-02-23T13:52:53;23.03;;;13.87;;
14125;SDS011;7141;49.484;11.242;2023-02-23T13:57:53;23.20;;;14.30;;
14125;SDS011;7141;49.484;11.242;2023-02-23T14:00:21;22.40;;;13.73;;
14125;SDS011;7141;49.484;11.242;2023-02-23T14:02:47;18.97;;;13.17;;
14125;SDS011;7141;49.484;11.242;2023-02-23T14:05:16;19.73;;;13.63;;
14125;SDS011;7141;49.484;11.242;2023-02-23T14:07:44;22.40;;;13.63;;
14125;SDS011;7141;49.484;11.242;2023-02-23T14:10:53;18.97;;;12.30;;
14125;SDS011;7141;49.484;11.242;2023-02-23T14:15:41;17.73;;;12.63;;
14125;SDS011;7141;49.484;11.242;2023-02-23T14:23:32;23.23;;;12.93;;
14125;SDS011;7141;49.484;11.242;2023-02-23T14:28:42;16.83;;;11.53;;
14125;SDS011;7141;49.484;11.242;2023-02-23T14:41:38;17.03;;;11.93;;
14125;SDS011;7141;49.484;11.242;2023-02-23T14:46:31;13.97;;;10.27;;
14125;SDS011;7141;49.484;11.242;2023-02-23T14:49:00;15.00;;;10.70;;
14125;SDS011;7141;49.484;11.242;2023-02-23T14:51:35;14.83;;;9.70;;
14125;SDS011;7141;49.484;11.242;2023-02-23T14:54:09;16.73;;;10.40;;
14125;SDS011;7141;49.484;11.242;2023-02-23T14:56:35;17.20;;;10.33;;
14125;SDS011;7141;49.484;11.242;2023-02-23T14:59:13;14.77;;;9.83;;
14125;SDS011;7141;49.484;11.242;2023-02-23T15:01:39;12.60;;;9.57;;
14125;SDS011;7141;49.484;11.242;2023-02-23T15:06:31;18.60;;;11.23;;
14125;SDS011;7141;49.484;11.242;2023-02-23T15:08:57;20.33;;;11.10;;
14125;SDS011;7141;49.484;11.242;2023-02-23T15:11:23;16.27;;;10.70;;
14125;SDS011;7141;49.484;11.242;2023-02-23T15:13:49;17.43;;;11.80;;
14125;SDS011;7141;49.484;11.242;2023-02-23T15:16:17;16.13;;;11.07;;
14125;SDS011;7141;49.484;11.242;2023-02-23T15:18:47;16.60;;;11.43;;
14125;SDS011;7141;49.484;11.242;2023-02-23T15:21:16;17.93;;;11.60;;
14125;SDS011;7141;49.484;11.242;2023-02-23T15:23:43;19.83;;;11.50;;
14125;SDS011;7141;49.484;11.242;2023-02-23T15:26:24;17.10;;;11.60;;
14125;SDS011;7141;49.484;11.242;2023-02-23T15:28:51;21.70;;;13.23;;
14125;SDS011;7141;49.484;11.242;2023-02-23T15:31:17;16.27;;;10.97;;
14125;SDS011;7141;49.484;11.242;2023-02-23T15:33:43;24.57;;;12.93;;
14125;SDS011;7141;49.484;11.242;2023-02-23T15:36:19;17.33;;;11.80;;
14125;SDS011;7141;49.484;11.242;2023-02-23T15:38:49;21.63;;;11.77;;
14125;SDS011;7141;49.484;11.242;2023-02-23T15:41:19;17.10;;;12.40;;
14125;SDS011;7141;49.484;11.242;2023-02-23T15:43:49;19.77;;;12.20;;
14125;SDS011;7141;49.484;11.242;2023-02-23T15:46:22;18.70;;;12.07;;
14125;SDS011;7141;49.484;11.242;2023-02-23T15:48:49;18.63;;;11.90;;
14125;SDS011;7141;49.484;11.242;2023-02-23T15:51:33;18.73;;;12.83;;
14125;SDS011;7141;49.484;11.242;2023-02-23T15:54:01;16.37;;;10.87;;
14125;SDS011;7141;49.484;11.242;2023-02-23T15:56:28;15.93;;;10.03;;
14125;SDS011;7141;49.484;11.242;2023-02-23T15:58:56;19.77;;;12.00;;
14125;SDS011;7141;49.484;11.242;2023-02-23T16:01:23;15.80;;;11.73;;
14125;SDS011;7141;49.484;11.242;2023-02-23T16:03:56;16.60;;;10.50;;
14125;SDS011;7141;49.484;11.242;2023-02-23T16:06:29;22.50;;;11.97;;
14125;SDS011;7141;49.484;11.242;2023-02-23T16:09:00;35.40;;;19.40;;
14125;SDS011;7141;49.484;11.242;2023-02-23T16:11:30;16.43;;;11.93;;
14125;SDS011;7141;49.484;11.242;2023-02-23T16:14:00;15.50;;;10.83;;
14125;SDS011;7141;49.484;11.242;2023-02-23T16:16:26;14.80;;;11.00;;
14125;SDS011;7141;49.484;11.242;2023-02-23T16:18:57;16.83;;;12.30;;
14125;SDS011;7141;49.484;11.242;2023-02-23T16:21:25;16.33;;;11.60;;
14125;SDS011;7141;49.484;11.242;2023-02-23T16:23:55;16.37;;;11.50;;
14125;SDS011;7141;49.484;11.242;2023-02-23T16:26:43;19.73;;;12.07;;
14125;SDS011;7141;49.484;11.242;2023-02-23T16:29:12;19.10;;;12.67;;
14125;SDS011;7141;49.484;11.242;2023-02-23T16:36:43;20.73;;;13.80;;
14125;SDS011;7141;49.484;11.242;2023-02-23T16:39:13;25.67;;;14.60;;
14125;SDS011;7141;49.484;11.242;2023-02-23T16:41:41;23.90;;;15.07;;
14125;SDS011;7141;49.484;11.242;2023-02-23T16:44:11;18.67;;;13.70;;
14125;SDS011;7141;49.484;11.242;2023-02-23T16:46:58;29.20;;;20.30;;
14125;SDS011;7141;49.484;11.242;2023-02-23T16:49:35;24.53;;;16.77;;
14125;SDS011;7141;49.484;11.242;2023-02-23T16:52:02;27.80;;;17.37;;
14125;SDS011;7141;49.484;11.242;2023-02-23T16:54:33;24.43;;;18.17;;
14125;SDS011;7141;49.484;11.242;2023-02-23T16:56:59;24.03;;;16.60;;
14125;SDS011;7141;49.484;11.242;2023-02-23T16:59:26;24.00;;;15.63;;